sensor_id;sensor_type;location;lat;lon;timestamp;P1;durP1;ratioP1;P2;durP2;ratioP2
57055;SDS011;42945;51.718;5.324;2022-07-23T00:01:59;5.72;;;3.55;;
57055;SDS011;42945;51.718;5.324;2022-07-23T00:04:24;9.73;;;4.20;;
57055;SDS011;42945;51.718;5.324;2022-07-23T00:06:50;6.50;;;4.03;;
57055;SDS011;42945;51.718;5.324;2022-07-23T00:09:15;7.20;;;3.72;;
57055;SDS011;42945;51.718;5.324;2022-07-23T00:11:40;9.27;;;4.20;;
57055;SDS011;42945;51.718;5.324;2022-07-23T00:14:05;8.50;;;3.67;;
57055;SDS011;42945;51.718;5.324;2022-07-23T00:16:31;7.35;;;3.70;;
57055;SDS011;42945;51.718;5.324;2022-07-23T00:18:56;6.57;;;4.18;;
57055;SDS011;42945;51.718;5.324;2022-07-23T00:21:21;7.50;;;3.28;;
57055;SDS011;42945;51.718;5.324;2022-07-23T00:23:47;7.65;;;3.67;;
57055;SDS011;42945;51.718;5.324;2022-07-23T00:26:12;10.73;;;3.60;;
57055;SDS011;42945;51.718;5.324;2022-07-23T00:28:37;7.93;;;3.60;;
57055;SDS011;42945;51.718;5.324;2022-07-23T00:31:03;7.40;;;3.95;;
57055;SDS011;42945;51.718;5.324;2022-07-23T00:33:28;10.60;;;3.70;;
57055;SDS011;42945;51.718;5.324;2022-07-23T00:35:53;8.90;;;3.58;;
57055;SDS011;42945;51.718;5.324;2022-07-23T00:38:19;8.02;;;3.83;;
57055;SDS011;42945;51.718;5.324;2022-07-23T00:40:44;6.78;;;3.63;;
57055;SDS011;42945;51.718;5.324;2022-07-23T00:43:09;7.82;;;3.83;;
57055;SDS011;42945;51.718;5.324;2022-07-23T00:45:35;6.97;;;3.40;;
57055;SDS011;42945;51.718;5.324;2022-07-23T00:48:00;10.27;;;3.58;;
57055;SDS011;42945;51.718;5.324;2022-07-23T00:50:26;7.03;;;3.88;;
57055;SDS011;42945;51.718;5.324;2022-07-23T00:52:51;6.93;;;3.95;;
57055;SDS011;42945;51.718;5.324;2022-07-23T00:55:17;5.93;;;3.60;;
57055;SDS011;42945;51.718;5.324;2022-07-23T00:57:42;12.45;;;3.70;;
57055;SDS011;42945;51.718;5.324;2022-07-23T01:00:09;7.72;;;4.13;;
57055;SDS011;42945;51.718;5.324;2022-07-23T01:02:38;7.72;;;3.28;;
57055;SDS011;42945;51.718;5.324;2022-07-23T01:05:04;10.90;;;4.10;;
57055;SDS011;42945;51.718;5.324;2022-07-23T01:07:30;8.98;;;4.18;;
57055;SDS011;42945;51.718;5.324;2022-07-23T01:09:55;5.95;;;4.18;;
57055;SDS011;42945;51.718;5.324;2022-07-23T01:12:21;8.82;;;4.50;;
57055;SDS011;42945;51.718;5.324;2022-07-23T01:14:59;8.70;;;4.18;;
57055;SDS011;42945;51.718;5.324;2022-07-23T01:17:25;7.15;;;4.30;;
57055;SDS011;42945;51.718;5.324;2022-07-23T01:19:51;10.65;;;4.57;;
57055;SDS011;42945;51.718;5.324;2022-07-23T01:22:20;7.60;;;4.88;;
57055;SDS011;42945;51.718;5.324;2022-07-23T01:24:45;9.90;;;4.78;;
57055;SDS011;42945;51.718;5.324;2022-07-23T01:27:11;10.60;;;5.10;;
57055;SDS011;42945;51.718;5.324;2022-07-23T01:29:38;9.07;;;5.00;;
57055;SDS011;42945;51.718;5.324;2022-07-23T01:39:02;9.00;;;4.78;;
57055;SDS011;42945;51.718;5.324;2022-07-23T01:44:51;11.45;;;4.80;;
57055;SDS011;42945;51.718;5.324;2022-07-23T01:50:39;9.95;;;4.88;;
57055;SDS011;42945;51.718;5.324;2022-07-23T01:56:27;8.88;;;4.97;;
57055;SDS011;42945;51.718;5.324;2022-07-23T02:02:15;13.38;;;5.72;;
57055;SDS011;42945;51.718;5.324;2022-07-23T02:08:03;9.80;;;4.97;;
57055;SDS011;42945;51.718;5.324;2022-07-23T02:13:52;11.95;;;5.60;;
57055;SDS011;42945;51.718;5.324;2022-07-23T02:19:40;10.93;;;5.72;;
57055;SDS011;42945;51.718;5.324;2022-07-23T02:25:28;9.87;;;5.67;;
57055;SDS011;42945;51.718;5.324;2022-07-23T02:31:17;11.20;;;5.72;;
57055;SDS011;42945;51.718;5.324;2022-07-23T02:37:04;12.63;;;5.75;;
57055;SDS011;42945;51.718;5.324;2022-07-23T02:42:53;8.90;;;5.70;;
57055;SDS011;42945;51.718;5.324;2022-07-23T02:48:40;11.27;;;6.15;;
57055;SDS011;42945;51.718;5.324;2022-07-23T02:54:28;9.80;;;5.95;;
57055;SDS011;42945;51.718;5.324;2022-07-23T03:00:16;9.32;;;5.95;;
57055;SDS011;42945;51.718;5.324;2022-07-23T03:06:04;9.63;;;6.00;;
57055;SDS011;42945;51.718;5.324;2022-07-23T03:11:53;9.77;;;5.93;;
57055;SDS011;42945;51.718;5.324;2022-07-23T03:17:42;12.60;;;6.22;;
57055;SDS011;42945;51.718;5.324;2022-07-23T03:23:30;13.68;;;5.80;;
57055;SDS011;42945;51.718;5.324;2022-07-23T03:29:18;11.23;;;6.68;;
57055;SDS011;42945;51.718;5.324;2022-07-23T03:35:07;13.50;;;6.45;;
57055;SDS011;42945;51.718;5.324;2022-07-23T03:40:55;12.32;;;6.20;;
57055;SDS011;42945;51.718;5.324;2022-07-23T03:46:43;12.13;;;6.47;;
57055;SDS011;42945;51.718;5.324;2022-07-23T03:52:30;13.57;;;7.05;;
57055;SDS011;42945;51.718;5.324;2022-07-23T03:58:18;16.08;;;6.97;;
57055;SDS011;42945;51.718;5.324;2022-07-23T04:04:06;14.90;;;6.80;;
57055;SDS011;42945;51.718;5.324;2022-07-23T04:09:55;16.83;;;6.80;;
57055;SDS011;42945;51.718;5.324;2022-07-23T04:15:43;13.55;;;7.00;;
57055;SDS011;42945;51.718;5.324;2022-07-23T04:21:30;16.40;;;7.05;;
57055;SDS011;42945;51.718;5.324;2022-07-23T04:27:18;13.55;;;7.90;;
57055;SDS011;42945;51.718;5.324;2022-07-23T04:33:05;13.63;;;6.90;;
57055;SDS011;42945;51.718;5.324;2022-07-23T04:42:45;17.42;;;7.40;;
57055;SDS011;42945;51.718;5.324;2022-07-23T04:48:37;15.20;;;7.82;;
57055;SDS011;42945;51.718;5.324;2022-07-23T04:54:25;13.43;;;7.13;;
57055;SDS011;42945;51.718;5.324;2022-07-23T05:00:12;14.88;;;7.63;;
57055;SDS011;42945;51.718;5.324;2022-07-23T05:06:01;12.38;;;7.10;;
57055;SDS011;42945;51.718;5.324;2022-07-23T05:11:50;13.68;;;7.35;;
57055;SDS011;42945;51.718;5.324;2022-07-23T05:17:38;13.55;;;7.63;;
57055;SDS011;42945;51.718;5.324;2022-07-23T05:23:25;15.50;;;7.93;;
57055;SDS011;42945;51.718;5.324;2022-07-23T05:29:13;12.05;;;7.43;;
57055;SDS011;42945;51.718;5.324;2022-07-23T05:35:00;10.60;;;6.93;;
57055;SDS011;42945;51.718;5.324;2022-07-23T05:44:24;13.75;;;7.10;;
57055;SDS011;42945;51.718;5.324;2022-07-23T05:50:15;13.38;;;6.80;;
57055;SDS011;42945;51.718;5.324;2022-07-23T05:56:04;8.10;;;6.22;;
57055;SDS011;42945;51.718;5.324;2022-07-23T06:01:51;13.98;;;6.45;;
57055;SDS011;42945;51.718;5.324;2022-07-23T06:07:40;14.70;;;6.22;;
57055;SDS011;42945;51.718;5.324;2022-07-23T06:13:27;9.73;;;6.03;;
57055;SDS011;42945;51.718;5.324;2022-07-23T06:19:15;9.43;;;5.07;;
57055;SDS011;42945;51.718;5.324;2022-07-23T06:25:03;9.82;;;5.07;;
57055;SDS011;42945;51.718;5.324;2022-07-23T06:30:51;13.60;;;5.10;;
57055;SDS011;42945;51.718;5.324;2022-07-23T06:36:38;9.25;;;4.40;;
57055;SDS011;42945;51.718;5.324;2022-07-23T06:46:15;8.93;;;3.92;;
57055;SDS011;42945;51.718;5.324;2022-07-23T06:52:03;10.23;;;4.60;;
57055;SDS011;42945;51.718;5.324;2022-07-23T06:57:52;10.85;;;5.38;;
57055;SDS011;42945;51.718;5.324;2022-07-23T07:03:41;13.05;;;5.78;;
57055;SDS011;42945;51.718;5.324;2022-07-23T07:09:29;9.73;;;4.90;;
57055;SDS011;42945;51.718;5.324;2022-07-23T07:15:17;9.43;;;3.80;;
57055;SDS011;42945;51.718;5.324;2022-07-23T07:21:05;7.93;;;3.58;;
57055;SDS011;42945;51.718;5.324;2022-07-23T07:26:54;9.00;;;3.20;;
57055;SDS011;42945;51.718;5.324;2022-07-23T07:32:43;4.72;;;3.50;;
57055;SDS011;42945;51.718;5.324;2022-07-23T07:38:31;6.63;;;3.42;;
57055;SDS011;42945;51.718;5.324;2022-07-23T07:47:52;9.90;;;3.45;;
57055;SDS011;42945;51.718;5.324;2022-07-23T07:53:40;5.80;;;3.63;;
57055;SDS011;42945;51.718;5.324;2022-07-23T07:59:27;7.22;;;3.97;;
57055;SDS011;42945;51.718;5.324;2022-07-23T08:05:18;9.40;;;4.10;;
57055;SDS011;42945;51.718;5.324;2022-07-23T08:11:08;6.53;;;4.18;;
57055;SDS011;42945;51.718;5.324;2022-07-23T08:16:55;10.30;;;4.68;;
57055;SDS011;42945;51.718;5.324;2022-07-23T08:22:49;7.10;;;4.22;;
57055;SDS011;42945;51.718;5.324;2022-07-23T08:28:42;10.68;;;4.38;;
57055;SDS011;42945;51.718;5.324;2022-07-23T08:34:29;6.50;;;3.43;;
57055;SDS011;42945;51.718;5.324;2022-07-23T08:40:17;6.03;;;3.35;;
57055;SDS011;42945;51.718;5.324;2022-07-23T08:49:53;4.95;;;3.13;;
57055;SDS011;42945;51.718;5.324;2022-07-23T08:55:44;7.47;;;3.40;;
57055;SDS011;42945;51.718;5.324;2022-07-23T09:01:37;6.78;;;3.55;;
57055;SDS011;42945;51.718;5.324;2022-07-23T09:07:24;7.32;;;3.60;;
57055;SDS011;42945;51.718;5.324;2022-07-23T09:13:31;6.60;;;3.83;;
57055;SDS011;42945;51.718;5.324;2022-07-23T09:19:31;7.83;;;3.80;;
57055;SDS011;42945;51.718;5.324;2022-07-23T09:25:18;7.37;;;3.27;;
57055;SDS011;42945;51.718;5.324;2022-07-23T09:31:07;8.23;;;3.83;;
57055;SDS011;42945;51.718;5.324;2022-07-23T09:37:14;9.07;;;3.88;;
57055;SDS011;42945;51.718;5.324;2022-07-23T09:43:04;7.80;;;4.18;;
57055;SDS011;42945;51.718;5.324;2022-07-23T09:52:53;7.80;;;3.20;;
57055;SDS011;42945;51.718;5.324;2022-07-23T09:58:41;6.03;;;3.40;;
57055;SDS011;42945;51.718;5.324;2022-07-23T10:04:35;5.00;;;3.75;;
57055;SDS011;42945;51.718;5.324;2022-07-23T10:10:23;4.90;;;2.97;;
57055;SDS011;42945;51.718;5.324;2022-07-23T10:16:13;7.72;;;3.92;;
57055;SDS011;42945;51.718;5.324;2022-07-23T10:22:06;7.22;;;3.47;;
57055;SDS011;42945;51.718;5.324;2022-07-23T10:40:11;6.00;;;3.08;;
57055;SDS011;42945;51.718;5.324;2022-07-23T10:46:35;4.38;;;2.65;;
57055;SDS011;42945;51.718;5.324;2022-07-23T10:52:21;4.53;;;3.15;;
57055;SDS011;42945;51.718;5.324;2022-07-23T10:58:10;6.05;;;3.30;;
57055;SDS011;42945;51.718;5.324;2022-07-23T11:04:05;10.30;;;3.97;;
57055;SDS011;42945;51.718;5.324;2022-07-23T11:09:55;6.28;;;2.90;;
57055;SDS011;42945;51.718;5.324;2022-07-23T11:21:53;4.80;;;3.33;;
57055;SDS011;42945;51.718;5.324;2022-07-23T11:27:42;4.05;;;2.75;;
57055;SDS011;42945;51.718;5.324;2022-07-23T11:33:31;5.97;;;3.47;;
57055;SDS011;42945;51.718;5.324;2022-07-23T11:45:08;5.80;;;3.97;;
57055;SDS011;42945;51.718;5.324;2022-07-23T11:54:52;6.60;;;3.75;;
57055;SDS011;42945;51.718;5.324;2022-07-23T12:00:42;5.85;;;4.55;;
57055;SDS011;42945;51.718;5.324;2022-07-23T12:06:37;7.32;;;4.00;;
57055;SDS011;42945;51.718;5.324;2022-07-23T12:12:25;7.15;;;3.83;;
57055;SDS011;42945;51.718;5.324;2022-07-23T12:18:24;4.88;;;4.03;;
57055;SDS011;42945;51.718;5.324;2022-07-23T12:24:14;7.95;;;4.82;;
57055;SDS011;42945;51.718;5.324;2022-07-23T12:36:18;6.88;;;3.90;;
57055;SDS011;42945;51.718;5.324;2022-07-23T12:42:10;5.35;;;4.05;;
57055;SDS011;42945;51.718;5.324;2022-07-23T12:48:03;8.23;;;3.15;;
57055;SDS011;42945;51.718;5.324;2022-07-23T13:04:20;6.00;;;3.15;;
57055;SDS011;42945;51.718;5.324;2022-07-23T13:10:09;4.63;;;2.65;;
57055;SDS011;42945;51.718;5.324;2022-07-23T13:15:59;5.53;;;3.00;;
57055;SDS011;42945;51.718;5.324;2022-07-23T13:21:48;5.53;;;2.83;;
57055;SDS011;42945;51.718;5.324;2022-07-23T13:27:36;3.60;;;2.05;;
57055;SDS011;42945;51.718;5.324;2022-07-23T13:39:13;6.35;;;2.42;;
57055;SDS011;42945;51.718;5.324;2022-07-23T13:45:01;4.68;;;2.58;;
57055;SDS011;42945;51.718;5.324;2022-07-23T13:50:50;3.90;;;2.50;;
57055;SDS011;42945;51.718;5.324;2022-07-23T14:00:42;2.78;;;2.10;;
57055;SDS011;42945;51.718;5.324;2022-07-23T14:06:36;5.35;;;3.00;;
57055;SDS011;42945;51.718;5.324;2022-07-23T14:12:25;4.35;;;2.33;;
57055;SDS011;42945;51.718;5.324;2022-07-23T14:24:01;4.35;;;1.85;;
57055;SDS011;42945;51.718;5.324;2022-07-23T14:41:26;2.85;;;2.00;;
57055;SDS011;42945;51.718;5.324;2022-07-23T14:47:15;2.70;;;2.20;;
57055;SDS011;42945;51.718;5.324;2022-07-23T14:53:03;3.70;;;1.73;;
57055;SDS011;42945;51.718;5.324;2022-07-23T15:04:39;2.70;;;2.20;;
57055;SDS011;42945;51.718;5.324;2022-07-23T15:22:01;6.10;;;2.33;;
57055;SDS011;42945;51.718;5.324;2022-07-23T15:27:51;6.18;;;2.45;;
57055;SDS011;42945;51.718;5.324;2022-07-23T15:39:27;5.43;;;2.17;;
57055;SDS011;42945;51.718;5.324;2022-07-23T15:45:14;3.33;;;2.00;;
57055;SDS011;42945;51.718;5.324;2022-07-23T15:51:04;2.35;;;1.85;;
57055;SDS011;42945;51.718;5.324;2022-07-23T15:56:52;2.47;;;1.70;;
57055;SDS011;42945;51.718;5.324;2022-07-23T16:08:28;5.55;;;2.10;;
57055;SDS011;42945;51.718;5.324;2022-07-23T16:20:04;6.35;;;2.35;;
57055;SDS011;42945;51.718;5.324;2022-07-23T16:31:41;3.58;;;1.90;;
57055;SDS011;42945;51.718;5.324;2022-07-23T16:37:30;6.63;;;1.80;;
57055;SDS011;42945;51.718;5.324;2022-07-23T16:43:19;3.60;;;1.90;;
57055;SDS011;42945;51.718;5.324;2022-07-23T16:54:54;4.68;;;1.92;;
57055;SDS011;42945;51.718;5.324;2022-07-23T17:04:29;4.28;;;1.58;;
57055;SDS011;42945;51.718;5.324;2022-07-23T17:10:17;2.53;;;1.70;;
57055;SDS011;42945;51.718;5.324;2022-07-23T17:16:07;4.05;;;2.30;;
57055;SDS011;42945;51.718;5.324;2022-07-23T17:21:54;6.18;;;2.00;;
57055;SDS011;42945;51.718;5.324;2022-07-23T17:27:43;7.22;;;1.70;;
57055;SDS011;42945;51.718;5.324;2022-07-23T17:33:33;3.92;;;1.60;;
57055;SDS011;42945;51.718;5.324;2022-07-23T17:39:21;2.72;;;1.90;;
57055;SDS011;42945;51.718;5.324;2022-07-23T17:45:10;3.92;;;1.88;;
57055;SDS011;42945;51.718;5.324;2022-07-23T17:51:01;2.67;;;1.88;;
57055;SDS011;42945;51.718;5.324;2022-07-23T17:56:50;3.00;;;2.13;;
57055;SDS011;42945;51.718;5.324;2022-07-23T18:02:38;2.65;;;2.10;;
57055;SDS011;42945;51.718;5.324;2022-07-23T18:14:15;2.97;;;2.15;;
57055;SDS011;42945;51.718;5.324;2022-07-23T18:20:03;7.20;;;2.13;;
57055;SDS011;42945;51.718;5.324;2022-07-23T18:25:53;5.25;;;1.90;;
57055;SDS011;42945;51.718;5.324;2022-07-23T18:31:41;5.95;;;2.20;;
57055;SDS011;42945;51.718;5.324;2022-07-23T18:37:31;5.85;;;2.42;;
57055;SDS011;42945;51.718;5.324;2022-07-23T18:43:20;8.15;;;2.45;;
57055;SDS011;42945;51.718;5.324;2022-07-23T18:49:09;4.07;;;2.25;;
57055;SDS011;42945;51.718;5.324;2022-07-23T18:54:56;5.05;;;2.33;;
57055;SDS011;42945;51.718;5.324;2022-07-23T19:00:45;3.63;;;2.50;;
57055;SDS011;42945;51.718;5.324;2022-07-23T19:06:33;5.25;;;3.60;;
57055;SDS011;42945;51.718;5.324;2022-07-23T19:12:21;5.97;;;3.45;;
57055;SDS011;42945;51.718;5.324;2022-07-23T19:18:09;5.63;;;2.95;;
57055;SDS011;42945;51.718;5.324;2022-07-23T19:23:56;5.75;;;3.40;;
57055;SDS011;42945;51.718;5.324;2022-07-23T19:29:44;6.90;;;3.50;;
57055;SDS011;42945;51.718;5.324;2022-07-23T19:35:32;6.38;;;3.70;;
57055;SDS011;42945;51.718;5.324;2022-07-23T19:41:20;12.80;;;7.43;;
57055;SDS011;42945;51.718;5.324;2022-07-23T19:47:12;17.42;;;4.22;;
57055;SDS011;42945;51.718;5.324;2022-07-23T19:53:00;6.85;;;4.50;;
57055;SDS011;42945;51.718;5.324;2022-07-23T19:58:49;7.13;;;4.07;;
57055;SDS011;42945;51.718;5.324;2022-07-23T20:08:26;7.72;;;4.85;;
57055;SDS011;42945;51.718;5.324;2022-07-23T20:14:14;6.50;;;4.50;;
57055;SDS011;42945;51.718;5.324;2022-07-23T20:20:02;11.43;;;6.35;;
57055;SDS011;42945;51.718;5.324;2022-07-23T20:25:55;9.57;;;4.95;;
57055;SDS011;42945;51.718;5.324;2022-07-23T20:31:45;9.07;;;4.40;;
57055;SDS011;42945;51.718;5.324;2022-07-23T20:37:36;6.65;;;4.05;;
57055;SDS011;42945;51.718;5.324;2022-07-23T20:43:24;7.15;;;3.88;;
57055;SDS011;42945;51.718;5.324;2022-07-23T20:49:14;8.50;;;4.07;;
57055;SDS011;42945;51.718;5.324;2022-07-23T20:55:09;8.85;;;4.10;;
57055;SDS011;42945;51.718;5.324;2022-07-23T21:00:58;4.47;;;3.57;;
57055;SDS011;42945;51.718;5.324;2022-07-23T21:10:40;6.75;;;4.15;;
57055;SDS011;42945;51.718;5.324;2022-07-23T21:16:29;8.32;;;4.40;;
57055;SDS011;42945;51.718;5.324;2022-07-23T21:22:16;5.97;;;4.03;;
57055;SDS011;42945;51.718;5.324;2022-07-23T21:28:05;6.35;;;4.20;;
57055;SDS011;42945;51.718;5.324;2022-07-23T21:33:55;7.15;;;4.72;;
57055;SDS011;42945;51.718;5.324;2022-07-23T21:39:42;6.97;;;4.93;;
57055;SDS011;42945;51.718;5.324;2022-07-23T21:45:30;8.73;;;4.70;;
57055;SDS011;42945;51.718;5.324;2022-07-23T21:51:19;8.23;;;4.97;;
57055;SDS011;42945;51.718;5.324;2022-07-23T21:57:08;7.40;;;5.45;;
57055;SDS011;42945;51.718;5.324;2022-07-23T22:02:57;6.50;;;5.05;;
57055;SDS011;42945;51.718;5.324;2022-07-23T22:12:39;8.70;;;6.28;;
57055;SDS011;42945;51.718;5.324;2022-07-23T22:18:27;11.95;;;6.75;;
57055;SDS011;42945;51.718;5.324;2022-07-23T22:24:16;11.77;;;7.87;;
57055;SDS011;42945;51.718;5.324;2022-07-23T22:30:06;12.25;;;8.20;;
57055;SDS011;42945;51.718;5.324;2022-07-23T22:35:56;12.30;;;8.25;;
57055;SDS011;42945;51.718;5.324;2022-07-23T22:41:44;16.83;;;9.20;;
57055;SDS011;42945;51.718;5.324;2022-07-23T22:47:32;16.65;;;8.75;;
57055;SDS011;42945;51.718;5.324;2022-07-23T22:53:20;14.77;;;9.00;;
57055;SDS011;42945;51.718;5.324;2022-07-23T22:59:08;13.02;;;9.23;;
57055;SDS011;42945;51.718;5.324;2022-07-23T23:04:55;14.68;;;10.10;;
57055;SDS011;42945;51.718;5.324;2022-07-23T23:14:38;16.98;;;10.82;;
57055;SDS011;42945;51.718;5.324;2022-07-23T23:20:27;17.55;;;11.60;;
57055;SDS011;42945;51.718;5.324;2022-07-23T23:26:15;17.40;;;12.25;;
57055;SDS011;42945;51.718;5.324;2022-07-23T23:32:02;18.63;;;12.40;;
57055;SDS011;42945;51.718;5.324;2022-07-23T23:37:52;19.60;;;12.13;;
57055;SDS011;42945;51.718;5.324;2022-07-23T23:43:40;20.13;;;12.10;;
57055;SDS011;42945;51.718;5.324;2022-07-23T23:49:28;17.50;;;11.90;;
57055;SDS011;42945;51.718;5.324;2022-07-23T23:55:16;20.15;;;12.77;;
